Atqasuk, Alaska
Current Conditions -  °F | °C
As of 12:53 AM on Friday 24 Oct 2014 (Local Time) from PAWI Reporting Station
Haze Haze  
Wind Chill: -4°   Ceiling: Unl
Heat Index: 14°   Visibility: 4mi
Dew Point: 10°   Wind: 22mph
Humidity: 84%   Direction: 80°E
Pressure: 29.64"   Gusts: NA
Location:  70.47°N, 157.4°W
Report Text: PAWI 240853Z AUTO 08019KT 4SM BR SCT003 M10/M12 A2964 RMK SLP037 60000 T11001122 410441106 56010 TSNO VIA AUTODIAL
Loading
Personal Weather Stations






























Interactive Weather Map
Tropical Storm Tracking
New forecast layout! Learn more

10-Day Weather Forecast

Advertisements
Track Severe Weather on mobile